sensor_id;sensor_type;location;lat;lon;timestamp;temperature;humidity
13472;DHT22;6808;49.444;11.034;2023-01-04T00:02:02;3.30;99.90
13472;DHT22;6808;49.444;11.034;2023-01-04T00:04:27;3.30;99.90
13472;DHT22;6808;49.444;11.034;2023-01-04T00:06:53;3.40;99.90
13472;DHT22;6808;49.444;11.034;2023-01-04T00:09:18;3.40;99.90
13472;DHT22;6808;49.444;11.034;2023-01-04T00:11:44;3.50;99.90
13472;DHT22;6808;49.444;11.034;2023-01-04T00:14:10;3.50;99.90
13472;DHT22;6808;49.444;11.034;2023-01-04T00:16:35;3.50;99.90
13472;DHT22;6808;49.444;11.034;2023-01-04T00:19:01;3.60;99.90
13472;DHT22;6808;49.444;11.034;2023-01-04T00:21:29;3.60;99.90
13472;DHT22;6808;49.444;11.034;2023-01-04T00:23:59;3.60;99.90
13472;DHT22;6808;49.444;11.034;2023-01-04T00:26:27;3.60;99.90
13472;DHT22;6808;49.444;11.034;2023-01-04T00:28:55;3.60;99.90
13472;DHT22;6808;49.444;11.034;2023-01-04T00:31:22;3.60;99.90
13472;DHT22;6808;49.444;11.034;2023-01-04T00:33:48;3.60;99.90
13472;DHT22;6808;49.444;11.034;2023-01-04T00:36:13;3.60;99.90
13472;DHT22;6808;49.444;11.034;2023-01-04T00:38:40;3.60;99.90
13472;DHT22;6808;49.444;11.034;2023-01-04T00:41:07;3.60;99.90
13472;DHT22;6808;49.444;11.034;2023-01-04T00:43:33;3.60;99.90
13472;DHT22;6808;49.444;11.034;2023-01-04T00:45:59;3.50;99.90
13472;DHT22;6808;49.444;11.034;2023-01-04T00:48:26;3.50;99.90
13472;DHT22;6808;49.444;11.034;2023-01-04T00:50:51;3.40;99.90
13472;DHT22;6808;49.444;11.034;2023-01-04T00:53:17;3.30;99.90
13472;DHT22;6808;49.444;11.034;2023-01-04T00:55:43;3.30;99.90
13472;DHT22;6808;49.444;11.034;2023-01-04T00:58:09;3.30;99.90
13472;DHT22;6808;49.444;11.034;2023-01-04T01:00:35;3.30;99.90
13472;DHT22;6808;49.444;11.034;2023-01-04T01:03:01;3.30;99.90
13472;DHT22;6808;49.444;11.034;2023-01-04T01:05:27;3.30;99.90
13472;DHT22;6808;49.444;11.034;2023-01-04T01:07:52;3.30;99.90
13472;DHT22;6808;49.444;11.034;2023-01-04T01:10:18;3.30;99.90
13472;DHT22;6808;49.444;11.034;2023-01-04T01:12:44;3.30;99.90
13472;DHT22;6808;49.444;11.034;2023-01-04T01:15:10;3.20;99.90
13472;DHT22;6808;49.444;11.034;2023-01-04T01:17:35;3.10;99.90
13472;DHT22;6808;49.444;11.034;2023-01-04T01:20:02;3.10;99.90
13472;DHT22;6808;49.444;11.034;2023-01-04T01:22:28;3.10;99.90
13472;DHT22;6808;49.444;11.034;2023-01-04T01:24:54;3.10;99.90
13472;DHT22;6808;49.444;11.034;2023-01-04T01:27:19;3.00;99.90
13472;DHT22;6808;49.444;11.034;2023-01-04T01:29:45;3.00;99.90
13472;DHT22;6808;49.444;11.034;2023-01-04T01:32:11;2.90;99.90
13472;DHT22;6808;49.444;11.034;2023-01-04T01:34:36;3.00;99.90
13472;DHT22;6808;49.444;11.034;2023-01-04T01:37:02;3.10;99.90
13472;DHT22;6808;49.444;11.034;2023-01-04T01:39:28;3.10;99.90
13472;DHT22;6808;49.444;11.034;2023-01-04T01:41:54;3.10;99.90
13472;DHT22;6808;49.444;11.034;2023-01-04T01:47:33;2.90;99.90
13472;DHT22;6808;49.444;11.034;2023-01-04T01:50:02;2.80;99.90
13472;DHT22;6808;49.444;11.034;2023-01-04T01:52:36;2.80;99.90
13472;DHT22;6808;49.444;11.034;2023-01-04T01:55:03;2.80;99.90
13472;DHT22;6808;49.444;11.034;2023-01-04T01:57:32;2.90;99.90
13472;DHT22;6808;49.444;11.034;2023-01-04T02:00:04;3.00;99.90
13472;DHT22;6808;49.444;11.034;2023-01-04T02:02:31;2.90;99.90
13472;DHT22;6808;49.444;11.034;2023-01-04T02:04:58;2.80;99.90
13472;DHT22;6808;49.444;11.034;2023-01-04T02:07:25;2.90;99.90
13472;DHT22;6808;49.444;11.034;2023-01-04T02:09:53;2.90;99.90
13472;DHT22;6808;49.444;11.034;2023-01-04T02:12:19;3.00;99.90
13472;DHT22;6808;49.444;11.034;2023-01-04T02:14:46;3.00;99.90
13472;DHT22;6808;49.444;11.034;2023-01-04T02:17:38;3.00;99.90
13472;DHT22;6808;49.444;11.034;2023-01-04T02:20:30;3.00;99.90
13472;DHT22;6808;49.444;11.034;2023-01-04T02:28:38;3.00;99.90
13472;DHT22;6808;49.444;11.034;2023-01-04T02:33:39;2.80;99.90
13472;DHT22;6808;49.444;11.034;2023-01-04T02:41:57;2.90;99.90
13472;DHT22;6808;49.444;11.034;2023-01-04T02:44:50;3.00;99.90
13472;DHT22;6808;49.444;11.034;2023-01-04T02:47:38;3.00;99.90
13472;DHT22;6808;49.444;11.034;2023-01-04T02:50:30;3.10;99.90
13472;DHT22;6808;49.444;11.034;2023-01-04T02:58:23;3.10;99.90
13472;DHT22;6808;49.444;11.034;2023-01-04T03:01:11;3.20;99.90
13472;DHT22;6808;49.444;11.034;2023-01-04T03:10:03;3.10;99.90
13472;DHT22;6808;49.444;11.034;2023-01-04T03:12:33;3.10;99.90
13472;DHT22;6808;49.444;11.034;2023-01-04T03:15:36;4.00;99.90
13472;DHT22;6808;49.444;11.034;2023-01-04T03:18:19;3.00;99.90
13472;DHT22;6808;49.444;11.034;2023-01-04T03:20:49;3.00;99.90
13472;DHT22;6808;49.444;11.034;2023-01-04T03:23:18;3.00;99.90
13472;DHT22;6808;49.444;11.034;2023-01-04T03:26:08;3.10;99.90
13472;DHT22;6808;49.444;11.034;2023-01-04T03:28:56;3.10;99.90
13472;DHT22;6808;49.444;11.034;2023-01-04T03:31:46;3.20;99.90
13472;DHT22;6808;49.444;11.034;2023-01-04T03:34:32;3.20;99.90
13472;DHT22;6808;49.444;11.034;2023-01-04T03:37:58;3.20;99.90
13472;DHT22;6808;49.444;11.034;2023-01-04T03:46:52;3.30;99.90
13472;DHT22;6808;49.444;11.034;2023-01-04T03:49:46;3.30;99.90
13472;DHT22;6808;49.444;11.034;2023-01-04T03:52:14;3.30;99.90
13472;DHT22;6808;49.444;11.034;2023-01-04T03:54:43;3.30;99.90
13472;DHT22;6808;49.444;11.034;2023-01-04T03:57:11;3.40;99.90
13472;DHT22;6808;49.444;11.034;2023-01-04T03:59:43;3.40;99.90
13472;DHT22;6808;49.444;11.034;2023-01-04T04:02:11;3.40;99.90
13472;DHT22;6808;49.444;11.034;2023-01-04T04:04:39;3.50;99.90
13472;DHT22;6808;49.444;11.034;2023-01-04T04:07:24;3.50;99.90
13472;DHT22;6808;49.444;11.034;2023-01-04T04:10:08;3.50;99.90
13472;DHT22;6808;49.444;11.034;2023-01-04T04:12:33;3.50;99.90
13472;DHT22;6808;49.444;11.034;2023-01-04T04:14:59;3.50;99.90
13472;DHT22;6808;49.444;11.034;2023-01-04T04:17:24;3.40;99.90
13472;DHT22;6808;49.444;11.034;2023-01-04T04:19:50;3.40;99.90
13472;DHT22;6808;49.444;11.034;2023-01-04T04:22:16;3.50;99.90
13472;DHT22;6808;49.444;11.034;2023-01-04T04:24:41;3.50;99.90
13472;DHT22;6808;49.444;11.034;2023-01-04T04:27:07;3.50;99.90
13472;DHT22;6808;49.444;11.034;2023-01-04T04:29:32;3.50;99.90
13472;DHT22;6808;49.444;11.034;2023-01-04T04:31:58;3.60;99.90
13472;DHT22;6808;49.444;11.034;2023-01-04T04:34:23;3.60;99.90
13472;DHT22;6808;49.444;11.034;2023-01-04T04:36:49;3.60;99.90
13472;DHT22;6808;49.444;11.034;2023-01-04T04:39:14;3.60;99.90
13472;DHT22;6808;49.444;11.034;2023-01-04T04:41:40;3.60;99.90
13472;DHT22;6808;49.444;11.034;2023-01-04T04:44:08;3.70;99.90
13472;DHT22;6808;49.444;11.034;2023-01-04T04:46:34;3.70;99.90
13472;DHT22;6808;49.444;11.034;2023-01-04T04:49:03;3.80;99.90
13472;DHT22;6808;49.444;11.034;2023-01-04T04:51:29;3.80;99.90
13472;DHT22;6808;49.444;11.034;2023-01-04T04:53:54;3.80;99.90
13472;DHT22;6808;49.444;11.034;2023-01-04T04:56:20;3.80;99.90
13472;DHT22;6808;49.444;11.034;2023-01-04T04:58:46;3.70;99.90
13472;DHT22;6808;49.444;11.034;2023-01-04T05:01:12;3.70;99.90
13472;DHT22;6808;49.444;11.034;2023-01-04T05:03:37;3.80;99.90
13472;DHT22;6808;49.444;11.034;2023-01-04T05:06:03;3.80;99.90
13472;DHT22;6808;49.444;11.034;2023-01-04T05:08:29;3.80;99.90
13472;DHT22;6808;49.444;11.034;2023-01-04T05:10:54;3.80;99.90
13472;DHT22;6808;49.444;11.034;2023-01-04T05:13:20;3.80;99.90
13472;DHT22;6808;49.444;11.034;2023-01-04T05:15:49;3.80;99.90
13472;DHT22;6808;49.444;11.034;2023-01-04T05:18:16;3.80;99.90
13472;DHT22;6808;49.444;11.034;2023-01-04T05:20:43;3.80;99.90
13472;DHT22;6808;49.444;11.034;2023-01-04T05:23:11;3.80;99.90
13472;DHT22;6808;49.444;11.034;2023-01-04T05:25:37;3.80;99.90
13472;DHT22;6808;49.444;11.034;2023-01-04T05:28:02;3.80;99.90
13472;DHT22;6808;49.444;11.034;2023-01-04T05:30:28;3.80;99.90
13472;DHT22;6808;49.444;11.034;2023-01-04T05:33:12;3.90;99.90
13472;DHT22;6808;49.444;11.034;2023-01-04T05:35:37;3.90;99.90
13472;DHT22;6808;49.444;11.034;2023-01-04T05:38:03;3.90;99.90
13472;DHT22;6808;49.444;11.034;2023-01-04T05:40:29;3.90;99.90
13472;DHT22;6808;49.444;11.034;2023-01-04T05:42:55;3.90;99.90
13472;DHT22;6808;49.444;11.034;2023-01-04T05:45:21;3.90;99.90
13472;DHT22;6808;49.444;11.034;2023-01-04T05:47:51;3.90;99.90
13472;DHT22;6808;49.444;11.034;2023-01-04T05:50:18;4.00;99.90
13472;DHT22;6808;49.444;11.034;2023-01-04T05:52:44;4.00;99.90
13472;DHT22;6808;49.444;11.034;2023-01-04T05:55:10;4.00;99.90
13472;DHT22;6808;49.444;11.034;2023-01-04T05:57:35;4.00;99.90
13472;DHT22;6808;49.444;11.034;2023-01-04T06:00:02;3.90;99.90
13472;DHT22;6808;49.444;11.034;2023-01-04T06:02:29;3.90;99.90
13472;DHT22;6808;49.444;11.034;2023-01-04T06:04:55;3.90;99.90
13472;DHT22;6808;49.444;11.034;2023-01-04T06:07:21;3.90;99.90
13472;DHT22;6808;49.444;11.034;2023-01-04T06:09:46;3.90;99.90
13472;DHT22;6808;49.444;11.034;2023-01-04T06:12:12;3.90;99.90
13472;DHT22;6808;49.444;11.034;2023-01-04T06:14:38;3.90;99.90
13472;DHT22;6808;49.444;11.034;2023-01-04T06:17:04;3.90;99.90
13472;DHT22;6808;49.444;11.034;2023-01-04T06:19:29;3.80;99.90
13472;DHT22;6808;49.444;11.034;2023-01-04T06:21:55;3.80;99.90
13472;DHT22;6808;49.444;11.034;2023-01-04T06:24:21;3.80;99.90
13472;DHT22;6808;49.444;11.034;2023-01-04T06:26:47;3.80;99.90
13472;DHT22;6808;49.444;11.034;2023-01-04T06:29:13;3.90;99.90
13472;DHT22;6808;49.444;11.034;2023-01-04T06:31:38;3.90;99.90
13472;DHT22;6808;49.444;11.034;2023-01-04T06:34:04;3.90;99.90
13472;DHT22;6808;49.444;11.034;2023-01-04T06:36:30;4.30;99.90
13472;DHT22;6808;49.444;11.034;2023-01-04T06:38:57;4.00;99.90
13472;DHT22;6808;49.444;11.034;2023-01-04T06:41:23;4.00;99.90
13472;DHT22;6808;49.444;11.034;2023-01-04T06:43:49;4.00;99.90
13472;DHT22;6808;49.444;11.034;2023-01-04T06:46:15;4.00;99.90
13472;DHT22;6808;49.444;11.034;2023-01-04T06:48:40;4.10;99.90
13472;DHT22;6808;49.444;11.034;2023-01-04T06:51:06;4.10;99.90
13472;DHT22;6808;49.444;11.034;2023-01-04T06:53:32;4.10;99.90
13472;DHT22;6808;49.444;11.034;2023-01-04T06:55:57;4.10;99.90
13472;DHT22;6808;49.444;11.034;2023-01-04T06:58:23;4.20;99.90
13472;DHT22;6808;49.444;11.034;2023-01-04T07:00:53;4.10;99.90
13472;DHT22;6808;49.444;11.034;2023-01-04T07:03:19;4.10;99.90
13472;DHT22;6808;49.444;11.034;2023-01-04T07:05:45;4.20;99.90
13472;DHT22;6808;49.444;11.034;2023-01-04T07:08:11;4.20;99.90
13472;DHT22;6808;49.444;11.034;2023-01-04T07:10:37;4.20;99.90
13472;DHT22;6808;49.444;11.034;2023-01-04T07:13:03;4.20;99.90
13472;DHT22;6808;49.444;11.034;2023-01-04T07:15:29;4.20;99.90
13472;DHT22;6808;49.444;11.034;2023-01-04T07:17:54;4.20;99.90
13472;DHT22;6808;49.444;11.034;2023-01-04T07:20:20;4.20;99.90
13472;DHT22;6808;49.444;11.034;2023-01-04T07:22:45;4.30;99.90
13472;DHT22;6808;49.444;11.034;2023-01-04T07:25:11;4.30;99.90
13472;DHT22;6808;49.444;11.034;2023-01-04T07:27:36;4.30;99.90
13472;DHT22;6808;49.444;11.034;2023-01-04T07:30:03;4.30;99.90
13472;DHT22;6808;49.444;11.034;2023-01-04T07:32:28;4.30;99.90
13472;DHT22;6808;49.444;11.034;2023-01-04T07:34:54;4.40;99.90
13472;DHT22;6808;49.444;11.034;2023-01-04T07:37:19;4.50;99.90
13472;DHT22;6808;49.444;11.034;2023-01-04T07:39:45;4.50;99.90
13472;DHT22;6808;49.444;11.034;2023-01-04T07:42:12;4.50;99.90
13472;DHT22;6808;49.444;11.034;2023-01-04T07:44:38;4.60;99.90
13472;DHT22;6808;49.444;11.034;2023-01-04T07:47:04;4.60;99.90
13472;DHT22;6808;49.444;11.034;2023-01-04T07:49:29;4.60;99.90
13472;DHT22;6808;49.444;11.034;2023-01-04T07:51:55;4.60;99.90
13472;DHT22;6808;49.444;11.034;2023-01-04T07:54:21;4.60;99.90
13472;DHT22;6808;49.444;11.034;2023-01-04T07:56:49;4.70;99.90
13472;DHT22;6808;49.444;11.034;2023-01-04T07:59:16;4.70;99.90
13472;DHT22;6808;49.444;11.034;2023-01-04T08:01:42;4.70;99.90
13472;DHT22;6808;49.444;11.034;2023-01-04T08:04:10;4.80;99.90
13472;DHT22;6808;49.444;11.034;2023-01-04T08:06:36;4.80;99.90
13472;DHT22;6808;49.444;11.034;2023-01-04T08:09:03;4.80;99.90
13472;DHT22;6808;49.444;11.034;2023-01-04T08:11:29;4.90;99.90
13472;DHT22;6808;49.444;11.034;2023-01-04T08:13:55;4.90;99.90
13472;DHT22;6808;49.444;11.034;2023-01-04T08:16:23;4.80;99.90
13472;DHT22;6808;49.444;11.034;2023-01-04T08:18:56;4.80;99.90
13472;DHT22;6808;49.444;11.034;2023-01-04T08:21:22;4.90;99.90
13472;DHT22;6808;49.444;11.034;2023-01-04T08:23:48;5.00;99.90
13472;DHT22;6808;49.444;11.034;2023-01-04T08:26:15;5.00;99.90
13472;DHT22;6808;49.444;11.034;2023-01-04T08:28:41;5.00;99.90
13472;DHT22;6808;49.444;11.034;2023-01-04T08:31:13;5.00;99.90
13472;DHT22;6808;49.444;11.034;2023-01-04T08:33:39;5.00;99.90
13472;DHT22;6808;49.444;11.034;2023-01-04T08:38:36;5.00;99.90
13472;DHT22;6808;49.444;11.034;2023-01-04T08:41:02;5.00;99.90
13472;DHT22;6808;49.444;11.034;2023-01-04T08:43:28;5.10;99.90
13472;DHT22;6808;49.444;11.034;2023-01-04T08:45:53;5.10;99.90
13472;DHT22;6808;49.444;11.034;2023-01-04T08:48:19;5.10;99.90
13472;DHT22;6808;49.444;11.034;2023-01-04T08:50:44;5.10;99.90
13472;DHT22;6808;49.444;11.034;2023-01-04T08:53:10;5.20;99.90
13472;DHT22;6808;49.444;11.034;2023-01-04T08:55:36;5.20;99.90
13472;DHT22;6808;49.444;11.034;2023-01-04T08:58:01;5.30;99.90
13472;DHT22;6808;49.444;11.034;2023-01-04T09:00:28;5.30;99.90
13472;DHT22;6808;49.444;11.034;2023-01-04T09:02:54;5.40;99.90
13472;DHT22;6808;49.444;11.034;2023-01-04T09:05:20;5.80;99.90
13472;DHT22;6808;49.444;11.034;2023-01-04T09:07:46;5.50;99.90
13472;DHT22;6808;49.444;11.034;2023-01-04T09:10:11;5.50;99.90
13472;DHT22;6808;49.444;11.034;2023-01-04T09:12:37;5.60;99.90
13472;DHT22;6808;49.444;11.034;2023-01-04T09:15:03;5.60;99.90
13472;DHT22;6808;49.444;11.034;2023-01-04T09:17:29;5.60;99.90
13472;DHT22;6808;49.444;11.034;2023-01-04T09:19:55;5.70;99.90
13472;DHT22;6808;49.444;11.034;2023-01-04T09:22:20;5.70;99.90
13472;DHT22;6808;49.444;11.034;2023-01-04T09:24:46;5.80;99.90
13472;DHT22;6808;49.444;11.034;2023-01-04T09:27:11;5.80;99.90
13472;DHT22;6808;49.444;11.034;2023-01-04T09:29:37;5.80;99.90
13472;DHT22;6808;49.444;11.034;2023-01-04T09:32:02;5.90;99.90
13472;DHT22;6808;49.444;11.034;2023-01-04T09:34:28;5.90;99.90
13472;DHT22;6808;49.444;11.034;2023-01-04T09:36:54;5.90;99.90
13472;DHT22;6808;49.444;11.034;2023-01-04T09:39:19;6.00;99.90
13472;DHT22;6808;49.444;11.034;2023-01-04T09:44:42;6.00;99.90
13472;DHT22;6808;49.444;11.034;2023-01-04T09:47:16;6.00;99.90
13472;DHT22;6808;49.444;11.034;2023-01-04T09:52:24;6.10;99.90
13472;DHT22;6808;49.444;11.034;2023-01-04T09:55:01;6.20;99.90
13472;DHT22;6808;49.444;11.034;2023-01-04T09:57:31;6.20;99.90
13472;DHT22;6808;49.444;11.034;2023-01-04T10:00:05;6.40;99.90
13472;DHT22;6808;49.444;11.034;2023-01-04T10:02:41;6.40;99.90
13472;DHT22;6808;49.444;11.034;2023-01-04T10:05:17;6.40;99.90
13472;DHT22;6808;49.444;11.034;2023-01-04T10:07:43;6.50;99.90
13472;DHT22;6808;49.444;11.034;2023-01-04T10:10:17;6.60;99.90
13472;DHT22;6808;49.444;11.034;2023-01-04T10:16:14;6.80;99.90
13472;DHT22;6808;49.444;11.034;2023-01-04T10:19:36;6.80;99.90
13472;DHT22;6808;49.444;11.034;2023-01-04T10:21:55;6.90;99.90
13472;DHT22;6808;49.444;11.034;2023-01-04T10:27:52;6.90;99.90
13472;DHT22;6808;49.444;11.034;2023-01-04T10:30:41;7.00;99.90
13472;DHT22;6808;49.444;11.034;2023-01-04T10:33:12;7.00;99.90
13472;DHT22;6808;49.444;11.034;2023-01-04T10:35:40;7.00;99.90
13472;DHT22;6808;49.444;11.034;2023-01-04T10:38:22;7.10;99.90
13472;DHT22;6808;49.444;11.034;2023-01-04T10:40:49;7.10;99.90
13472;DHT22;6808;49.444;11.034;2023-01-04T10:43:33;7.00;99.90
13472;DHT22;6808;49.444;11.034;2023-01-04T10:48:48;7.10;99.90
13472;DHT22;6808;49.444;11.034;2023-01-04T10:51:25;7.10;99.90
13472;DHT22;6808;49.444;11.034;2023-01-04T10:53:57;7.10;99.90
13472;DHT22;6808;49.444;11.034;2023-01-04T11:07:07;7.30;99.90
13472;DHT22;6808;49.444;11.034;2023-01-04T11:12:22;7.40;99.90
13472;DHT22;6808;49.444;11.034;2023-01-04T11:14:49;7.30;99.90
13472;DHT22;6808;49.444;11.034;2023-01-04T11:17:15;7.30;99.90
13472;DHT22;6808;49.444;11.034;2023-01-04T11:19:42;7.40;99.90
13472;DHT22;6808;49.444;11.034;2023-01-04T11:22:15;7.40;99.90
13472;DHT22;6808;49.444;11.034;2023-01-04T11:24:47;7.40;99.90
13472;DHT22;6808;49.444;11.034;2023-01-04T11:27:16;7.40;99.90
13472;DHT22;6808;49.444;11.034;2023-01-04T11:29:55;7.50;99.90
13472;DHT22;6808;49.444;11.034;2023-01-04T11:32:53;7.50;99.90
13472;DHT22;6808;49.444;11.034;2023-01-04T11:38:12;7.60;99.90
13472;DHT22;6808;49.444;11.034;2023-01-04T11:40:39;7.70;99.90
13472;DHT22;6808;49.444;11.034;2023-01-04T11:43:16;7.70;99.90
13472;DHT22;6808;49.444;11.034;2023-01-04T11:48:45;7.80;99.90
13472;DHT22;6808;49.444;11.034;2023-01-04T11:51:34;7.80;99.90
13472;DHT22;6808;49.444;11.034;2023-01-04T11:56:39;7.90;99.90
13472;DHT22;6808;49.444;11.034;2023-01-04T11:59:20;8.00;99.90
13472;DHT22;6808;49.444;11.034;2023-01-04T12:01:48;8.00;99.90
13472;DHT22;6808;49.444;11.034;2023-01-04T12:04:20;8.10;99.90
13472;DHT22;6808;49.444;11.034;2023-01-04T12:09:17;8.20;99.90
13472;DHT22;6808;49.444;11.034;2023-01-04T12:11:54;8.20;99.90
13472;DHT22;6808;49.444;11.034;2023-01-04T12:14:29;8.30;99.90
13472;DHT22;6808;49.444;11.034;2023-01-04T12:17:09;8.30;99.90
13472;DHT22;6808;49.444;11.034;2023-01-04T12:19:36;8.40;99.90
13472;DHT22;6808;49.444;11.034;2023-01-04T12:22:03;8.40;99.90
13472;DHT22;6808;49.444;11.034;2023-01-04T12:24:31;8.40;99.90
13472;DHT22;6808;49.444;11.034;2023-01-04T12:26:58;8.40;99.90
13472;DHT22;6808;49.444;11.034;2023-01-04T12:37:00;8.60;99.90
13472;DHT22;6808;49.444;11.034;2023-01-04T12:39:39;8.60;99.90
13472;DHT22;6808;49.444;11.034;2023-01-04T12:42:13;8.60;99.90
13472;DHT22;6808;49.444;11.034;2023-01-04T12:52:47;8.80;99.90
13472;DHT22;6808;49.444;11.034;2023-01-04T12:58:00;8.90;99.90
13472;DHT22;6808;49.444;11.034;2023-01-04T13:05:51;9.00;99.90
13472;DHT22;6808;49.444;11.034;2023-01-04T13:08:18;9.10;99.90
13472;DHT22;6808;49.444;11.034;2023-01-04T13:10:49;9.10;99.90
13472;DHT22;6808;49.444;11.034;2023-01-04T13:13:24;9.10;99.90
13472;DHT22;6808;49.444;11.034;2023-01-04T13:21:15;9.10;99.90
13472;DHT22;6808;49.444;11.034;2023-01-04T13:23:53;9.10;99.90
13472;DHT22;6808;49.444;11.034;2023-01-04T13:26:39;9.20;99.90
13472;DHT22;6808;49.444;11.034;2023-01-04T13:31:47;9.20;99.90
13472;DHT22;6808;49.444;11.034;2023-01-04T13:34:17;9.20;99.90
13472;DHT22;6808;49.444;11.034;2023-01-04T13:42:18;9.20;99.90
13472;DHT22;6808;49.444;11.034;2023-01-04T13:47:15;9.20;99.90
13472;DHT22;6808;49.444;11.034;2023-01-04T13:49:41;9.20;99.90
13472;DHT22;6808;49.444;11.034;2023-01-04T13:52:26;9.20;99.90
13472;DHT22;6808;49.444;11.034;2023-01-04T13:55:19;9.20;99.90
13472;DHT22;6808;49.444;11.034;2023-01-04T14:00:44;9.20;99.90
13472;DHT22;6808;49.444;11.034;2023-01-04T14:05:37;9.20;99.90
13472;DHT22;6808;49.444;11.034;2023-01-04T14:08:11;9.20;99.90
13472;DHT22;6808;49.444;11.034;2023-01-04T14:10:41;9.20;99.90
13472;DHT22;6808;49.444;11.034;2023-01-04T14:13:07;9.20;99.90
13472;DHT22;6808;49.444;11.034;2023-01-04T14:15:38;9.20;99.90
13472;DHT22;6808;49.444;11.034;2023-01-04T14:18:04;9.20;99.90
13472;DHT22;6808;49.444;11.034;2023-01-04T14:20:34;9.20;99.90
13472;DHT22;6808;49.444;11.034;2023-01-04T14:23:00;9.30;99.90
13472;DHT22;6808;49.444;11.034;2023-01-04T14:25:38;9.30;99.90
13472;DHT22;6808;49.444;11.034;2023-01-04T14:33:31;9.30;99.90
13472;DHT22;6808;49.444;11.034;2023-01-04T14:42:13;9.30;99.90
13472;DHT22;6808;49.444;11.034;2023-01-04T14:44:27;9.30;99.90
13472;DHT22;6808;49.444;11.034;2023-01-04T14:46:57;9.30;99.90
13472;DHT22;6808;49.444;11.034;2023-01-04T14:49:22;9.30;99.90
13472;DHT22;6808;49.444;11.034;2023-01-04T14:54:21;9.40;99.90
13472;DHT22;6808;49.444;11.034;2023-01-04T14:56:47;9.40;99.90
13472;DHT22;6808;49.444;11.034;2023-01-04T14:59:13;9.40;99.90
13472;DHT22;6808;49.444;11.034;2023-01-04T15:01:38;9.40;99.90
13472;DHT22;6808;49.444;11.034;2023-01-04T15:04:04;9.40;99.90
13472;DHT22;6808;49.444;11.034;2023-01-04T15:06:31;9.40;99.90
13472;DHT22;6808;49.444;11.034;2023-01-04T15:08:57;9.40;99.90
13472;DHT22;6808;49.444;11.034;2023-01-04T15:11:22;9.40;99.90
13472;DHT22;6808;49.444;11.034;2023-01-04T15:13:48;9.40;99.90
13472;DHT22;6808;49.444;11.034;2023-01-04T15:16:15;9.40;99.90
13472;DHT22;6808;49.444;11.034;2023-01-04T15:18:42;9.40;99.90
13472;DHT22;6808;49.444;11.034;2023-01-04T15:21:09;9.40;99.90
13472;DHT22;6808;49.444;11.034;2023-01-04T15:23:36;9.40;99.90
13472;DHT22;6808;49.444;11.034;2023-01-04T15:26:07;9.40;99.90
13472;DHT22;6808;49.444;11.034;2023-01-04T15:28:32;9.30;99.90
13472;DHT22;6808;49.444;11.034;2023-01-04T15:30:58;9.20;99.90
13472;DHT22;6808;49.444;11.034;2023-01-04T15:33:24;9.20;99.90
13472;DHT22;6808;49.444;11.034;2023-01-04T15:36:00;9.20;99.90
13472;DHT22;6808;49.444;11.034;2023-01-04T15:38:26;9.10;99.90
13472;DHT22;6808;49.444;11.034;2023-01-04T15:41:02;9.10;99.90
13472;DHT22;6808;49.444;11.034;2023-01-04T15:43:28;9.00;99.90
13472;DHT22;6808;49.444;11.034;2023-01-04T15:45:53;9.00;99.90
13472;DHT22;6808;49.444;11.034;2023-01-04T15:48:19;9.00;99.90
13472;DHT22;6808;49.444;11.034;2023-01-04T15:50:44;9.00;99.90
13472;DHT22;6808;49.444;11.034;2023-01-04T15:53:10;9.00;99.90
13472;DHT22;6808;49.444;11.034;2023-01-04T15:55:36;8.90;99.90
13472;DHT22;6808;49.444;11.034;2023-01-04T15:58:02;8.90;99.90
13472;DHT22;6808;49.444;11.034;2023-01-04T16:00:29;8.90;99.90
13472;DHT22;6808;49.444;11.034;2023-01-04T16:02:54;8.80;99.90
13472;DHT22;6808;49.444;11.034;2023-01-04T16:05:21;8.80;99.90
13472;DHT22;6808;49.444;11.034;2023-01-04T16:07:47;8.80;99.90
13472;DHT22;6808;49.444;11.034;2023-01-04T16:10:13;8.80;99.90
13472;DHT22;6808;49.444;11.034;2023-01-04T16:12:39;8.70;99.90
13472;DHT22;6808;49.444;11.034;2023-01-04T16:15:14;9.10;99.90
13472;DHT22;6808;49.444;11.034;2023-01-04T16:17:41;8.70;99.90
13472;DHT22;6808;49.444;11.034;2023-01-04T16:20:08;8.70;99.90
13472;DHT22;6808;49.444;11.034;2023-01-04T16:22:34;9.30;99.90
13472;DHT22;6808;49.444;11.034;2023-01-04T16:25:00;8.70;99.90
13472;DHT22;6808;49.444;11.034;2023-01-04T16:27:25;8.70;99.90
13472;DHT22;6808;49.444;11.034;2023-01-04T16:29:52;8.70;99.90
13472;DHT22;6808;49.444;11.034;2023-01-04T16:32:18;8.70;99.90
13472;DHT22;6808;49.444;11.034;2023-01-04T16:34:44;8.70;99.90
13472;DHT22;6808;49.444;11.034;2023-01-04T16:37:09;8.70;99.90
13472;DHT22;6808;49.444;11.034;2023-01-04T16:39:35;8.70;99.90
13472;DHT22;6808;49.444;11.034;2023-01-04T16:42:00;8.70;99.90
13472;DHT22;6808;49.444;11.034;2023-01-04T16:44:26;8.70;99.90
13472;DHT22;6808;49.444;11.034;2023-01-04T16:46:52;8.60;99.90
13472;DHT22;6808;49.444;11.034;2023-01-04T16:49:17;8.60;99.90
13472;DHT22;6808;49.444;11.034;2023-01-04T16:51:44;8.60;99.90
13472;DHT22;6808;49.444;11.034;2023-01-04T16:54:14;8.60;99.90
13472;DHT22;6808;49.444;11.034;2023-01-04T16:56:41;8.60;99.90
13472;DHT22;6808;49.444;11.034;2023-01-04T16:59:12;8.60;99.90
13472;DHT22;6808;49.444;11.034;2023-01-04T17:01:38;8.60;99.90
13472;DHT22;6808;49.444;11.034;2023-01-04T17:04:06;8.60;99.90
13472;DHT22;6808;49.444;11.034;2023-01-04T17:06:36;8.60;99.90
13472;DHT22;6808;49.444;11.034;2023-01-04T17:09:03;8.60;99.90
13472;DHT22;6808;49.444;11.034;2023-01-04T17:11:31;8.60;99.90
13472;DHT22;6808;49.444;11.034;2023-01-04T17:13:57;8.60;99.90
13472;DHT22;6808;49.444;11.034;2023-01-04T17:16:23;8.60;99.90
13472;DHT22;6808;49.444;11.034;2023-01-04T17:18:50;8.60;99.90
13472;DHT22;6808;49.444;11.034;2023-01-04T17:21:18;8.60;99.90
13472;DHT22;6808;49.444;11.034;2023-01-04T17:23:46;8.60;99.90
13472;DHT22;6808;49.444;11.034;2023-01-04T17:26:17;8.60;99.90
13472;DHT22;6808;49.444;11.034;2023-01-04T17:28:43;8.60;99.90
13472;DHT22;6808;49.444;11.034;2023-01-04T17:31:25;8.60;99.90
13472;DHT22;6808;49.444;11.034;2023-01-04T17:33:52;8.60;99.90
13472;DHT22;6808;49.444;11.034;2023-01-04T17:36:19;8.60;99.90
13472;DHT22;6808;49.444;11.034;2023-01-04T17:38:45;8.60;99.90
13472;DHT22;6808;49.444;11.034;2023-01-04T17:41:15;8.60;99.90
13472;DHT22;6808;49.444;11.034;2023-01-04T17:43:43;8.50;99.90
13472;DHT22;6808;49.444;11.034;2023-01-04T17:46:12;8.60;99.90
13472;DHT22;6808;49.444;11.034;2023-01-04T17:48:38;8.60;99.90
13472;DHT22;6808;49.444;11.034;2023-01-04T17:51:08;8.60;99.90
13472;DHT22;6808;49.444;11.034;2023-01-04T17:53:35;8.60;99.90
13472;DHT22;6808;49.444;11.034;2023-01-04T17:56:09;8.60;99.90
13472;DHT22;6808;49.444;11.034;2023-01-04T17:58:34;8.60;99.90
13472;DHT22;6808;49.444;11.034;2023-01-04T18:01:07;8.60;99.90
13472;DHT22;6808;49.444;11.034;2023-01-04T18:03:33;8.60;99.90
13472;DHT22;6808;49.444;11.034;2023-01-04T18:05:58;8.60;99.90
13472;DHT22;6808;49.444;11.034;2023-01-04T18:08:24;8.60;99.90
13472;DHT22;6808;49.444;11.034;2023-01-04T18:10:50;8.70;99.90
13472;DHT22;6808;49.444;11.034;2023-01-04T18:13:15;8.60;99.90